createdAt,value
2019-06-26T00:01:15.810Z,23.90
2019-06-26T00:03:42.249Z,23.90
2019-06-26T00:06:08.656Z,23.80
2019-06-26T00:08:35.275Z,23.80
2019-06-26T00:11:01.923Z,23.80
2019-06-26T00:13:28.248Z,23.70
2019-06-26T00:15:55.734Z,23.70
2019-06-26T00:18:22.113Z,23.70
2019-06-26T00:20:48.429Z,23.70
2019-06-26T00:23:14.766Z,23.70
2019-06-26T00:25:41.183Z,23.60
2019-06-26T00:28:07.492Z,23.60
2019-06-26T00:30:34.946Z,23.40
2019-06-26T00:33:01.316Z,23.40
2019-06-26T00:35:27.711Z,23.20
2019-06-26T00:37:54.052Z,23.10
2019-06-26T00:40:20.377Z,23.20
2019-06-26T00:42:46.731Z,23.20
2019-06-26T00:45:13.170Z,23.20
2019-06-26T00:47:39.473Z,23.20
2019-06-26T00:50:08.143Z,23.30
2019-06-26T00:52:34.478Z,23.20
2019-06-26T00:55:00.831Z,23.10
2019-06-26T00:57:27.197Z,23.10
2019-06-26T00:59:53.528Z,23.00
2019-06-26T01:02:20.180Z,23.00
2019-06-26T01:04:57.351Z,23.10
2019-06-26T01:07:23.714Z,23.10
2019-06-26T01:09:50.297Z,23.10
2019-06-26T01:12:16.896Z,23.00
2019-06-26T01:14:43.239Z,23.00
2019-06-26T01:17:09.980Z,22.90
2019-06-26T01:19:36.360Z,22.90
2019-06-26T01:22:04.616Z,23.00
2019-06-26T01:24:30.959Z,22.90
2019-06-26T01:26:57.308Z,22.90
2019-06-26T01:29:23.646Z,22.90
2019-06-26T01:31:49.968Z,23.00
2019-06-26T01:34:16.341Z,22.90
2019-06-26T01:36:42.674Z,22.90
2019-06-26T01:39:09.071Z,22.90
2019-06-26T01:41:35.416Z,23.00
2019-06-26T01:44:14.103Z,22.90
2019-06-26T01:46:31.303Z,23.00
2019-06-26T01:48:57.629Z,22.90
2019-06-26T01:51:24.029Z,22.90
2019-06-26T01:53:50.361Z,22.90
2019-06-26T01:56:16.706Z,22.70
2019-06-26T01:58:43.022Z,22.80
2019-06-26T02:01:09.351Z,22.80
2019-06-26T02:03:35.864Z,22.80
2019-06-26T02:06:02.354Z,22.80
2019-06-26T02:08:28.689Z,22.60
2019-06-26T02:10:55.016Z,22.70
2019-06-26T02:13:21.374Z,22.70
2019-06-26T02:15:47.742Z,22.80
2019-06-26T02:18:32.750Z,22.70
2019-06-26T02:20:59.124Z,22.60
2019-06-26T02:23:26.509Z,22.70
2019-06-26T02:25:52.879Z,22.60
2019-06-26T02:28:19.238Z,22.60
2019-06-26T02:30:45.570Z,22.60
2019-06-26T02:33:11.901Z,22.50
2019-06-26T02:35:38.359Z,22.40
2019-06-26T02:38:04.732Z,22.40
2019-06-26T02:40:31.102Z,22.30
2019-06-26T02:42:57.431Z,22.20
2019-06-26T02:45:23.783Z,22.20
2019-06-26T02:47:50.142Z,22.20
2019-06-26T02:50:16.443Z,22.20
2019-06-26T02:52:42.795Z,22.30
2019-06-26T02:55:09.215Z,22.30
2019-06-26T02:57:35.565Z,22.20
2019-06-26T03:00:02.014Z,22.20
2019-06-26T03:02:28.532Z,22.20
2019-06-26T03:04:54.892Z,22.10
2019-06-26T03:07:21.301Z,22.00
2019-06-26T03:09:47.652Z,22.00
2019-06-26T03:12:14.016Z,22.00
2019-06-26T03:14:40.357Z,22.00
2019-06-26T03:17:06.706Z,22.10
2019-06-26T03:19:33.120Z,22.10
2019-06-26T03:22:00.439Z,22.20
2019-06-26T03:24:26.783Z,22.20
2019-06-26T03:26:53.130Z,22.30
2019-06-26T03:29:19.507Z,22.30
2019-06-26T03:31:45.834Z,22.50
2019-06-26T03:34:12.224Z,22.50
2019-06-26T03:36:39.144Z,22.60
2019-06-26T03:39:06.849Z,22.60
2019-06-26T03:41:33.278Z,22.60
2019-06-26T03:43:59.796Z,22.70
2019-06-26T03:46:26.202Z,22.70
2019-06-26T03:48:52.831Z,22.70
2019-06-26T03:51:19.239Z,22.70
2019-06-26T03:53:45.601Z,22.70
2019-06-26T03:56:11.954Z,22.80
2019-06-26T03:58:38.489Z,22.90
2019-06-26T04:01:08.019Z,22.90
2019-06-26T04:03:34.356Z,23.00
2019-06-26T04:06:00.695Z,23.20
2019-06-26T04:08:27.037Z,23.30
2019-06-26T04:10:53.506Z,23.30
2019-06-26T04:13:19.989Z,23.30
2019-06-26T04:15:46.473Z,23.40
2019-06-26T04:18:12.860Z,23.40
2019-06-26T04:20:39.199Z,23.60
2019-06-26T04:23:05.864Z,23.70
2019-06-26T04:25:32.206Z,23.80
2019-06-26T04:27:58.926Z,23.90
2019-06-26T04:30:25.269Z,24.00
2019-06-26T04:32:51.622Z,23.90
2019-06-26T04:35:18.488Z,24.10
2019-06-26T04:37:44.868Z,24.20
2019-06-26T04:40:11.738Z,24.20
2019-06-26T04:42:38.071Z,24.30
2019-06-26T04:45:05.721Z,24.50
2019-06-26T04:47:32.061Z,24.60
2019-06-26T04:49:58.388Z,24.40
2019-06-26T04:52:25.043Z,24.50
2019-06-26T04:54:51.454Z,24.50
2019-06-26T04:57:17.851Z,24.80
2019-06-26T04:59:44.172Z,24.90
2019-06-26T05:02:10.498Z,24.90
2019-06-26T05:04:36.838Z,25.20
2019-06-26T05:07:03.165Z,25.30
2019-06-26T05:09:29.515Z,25.50
2019-06-26T05:11:55.849Z,25.60
2019-06-26T05:14:22.625Z,25.80
2019-06-26T05:16:48.952Z,25.80
2019-06-26T05:19:15.325Z,26.10
2019-06-26T05:21:41.639Z,26.30
2019-06-26T05:27:10.886Z,26.30
2019-06-26T05:29:37.270Z,26.60
2019-06-26T05:32:03.742Z,26.80
2019-06-26T05:34:30.428Z,26.80
2019-06-26T05:36:57.160Z,26.80
2019-06-26T05:39:24.040Z,26.80
2019-06-26T05:41:50.370Z,26.80
2019-06-26T05:44:16.725Z,26.90
2019-06-26T05:46:43.037Z,27.20
2019-06-26T05:49:09.732Z,27.30
2019-06-26T05:51:36.133Z,27.50
2019-06-26T05:54:02.430Z,27.80
2019-06-26T05:56:28.867Z,28.00
2019-06-26T05:58:55.188Z,28.00
2019-06-26T06:01:21.643Z,28.10
2019-06-26T06:03:47.965Z,28.30
2019-06-26T06:06:14.410Z,28.30
2019-06-26T06:08:41.807Z,28.10
2019-06-26T06:11:08.313Z,28.20
2019-06-26T06:13:34.667Z,28.40
2019-06-26T06:16:01.009Z,28.70
2019-06-26T06:18:27.397Z,28.80
2019-06-26T06:20:53.759Z,29.00
2019-06-26T06:23:20.094Z,29.10
2019-06-26T06:25:46.427Z,29.30
2019-06-26T06:28:12.827Z,29.40
2019-06-26T06:30:39.466Z,29.50
2019-06-26T06:33:05.779Z,29.80
2019-06-26T06:35:32.131Z,29.80
2019-06-26T06:37:58.445Z,30.00
2019-06-26T06:40:24.844Z,30.20
2019-06-26T06:42:51.392Z,30.10
2019-06-26T06:45:18.850Z,30.30
2019-06-26T06:47:45.199Z,30.30
2019-06-26T06:50:11.829Z,30.40
2019-06-26T06:52:38.128Z,30.50
2019-06-26T06:55:05.849Z,30.80
2019-06-26T06:57:32.488Z,30.80
2019-06-26T06:59:58.830Z,30.90
2019-06-26T07:02:25.568Z,31.20
2019-06-26T07:04:51.936Z,31.40
2019-06-26T07:07:18.267Z,31.60
2019-06-26T07:09:44.673Z,31.80
2019-06-26T07:12:11.013Z,31.90
2019-06-26T07:14:37.360Z,32.00
2019-06-26T07:17:19.454Z,31.60
2019-06-26T07:19:31.923Z,31.90
2019-06-26T07:21:58.277Z,31.90
2019-06-26T07:24:24.678Z,31.70
2019-06-26T07:26:51.099Z,31.90
2019-06-26T07:29:17.420Z,32.20
2019-06-26T07:31:43.763Z,32.10
2019-06-26T07:34:10.080Z,32.00
2019-06-26T07:36:36.502Z,31.90
2019-06-26T07:39:04.641Z,31.70
2019-06-26T07:41:32.479Z,31.90
2019-06-26T07:43:58.859Z,32.00
2019-06-26T07:46:25.168Z,32.00
2019-06-26T07:48:51.584Z,32.20
2019-06-26T07:51:17.949Z,32.20
2019-06-26T07:53:44.599Z,32.10
2019-06-26T07:56:11.307Z,32.30
2019-06-26T07:58:37.640Z,32.20
2019-06-26T08:01:03.988Z,32.20
2019-06-26T08:03:30.358Z,32.40
2019-06-26T08:05:56.700Z,32.50
2019-06-26T08:08:24.916Z,32.80
2019-06-26T08:10:51.249Z,32.90
2019-06-26T08:13:17.621Z,33.20
2019-06-26T08:15:43.951Z,33.40
2019-06-26T08:18:10.298Z,33.60
2019-06-26T08:20:55.066Z,33.50
2019-06-26T08:23:05.766Z,33.10
2019-06-26T08:25:32.079Z,33.10
2019-06-26T08:27:58.413Z,33.00
2019-06-26T08:30:24.833Z,33.00
2019-06-26T08:32:51.532Z,33.20
2019-06-26T08:35:18.125Z,33.40
2019-06-26T08:37:44.497Z,33.40
2019-06-26T08:40:12.598Z,33.40
2019-06-26T08:42:39.314Z,33.10
2019-06-26T08:45:07.139Z,33.10
2019-06-26T08:47:33.494Z,33.20
2019-06-26T08:49:59.804Z,33.40
2019-06-26T08:52:26.152Z,33.50
2019-06-26T08:54:52.513Z,33.00
2019-06-26T08:57:19.429Z,33.00
2019-06-26T08:59:46.083Z,33.40
2019-06-26T09:02:12.466Z,33.30
2019-06-26T09:04:38.797Z,33.60
2019-06-26T09:07:05.126Z,33.90
2019-06-26T09:09:31.516Z,34.00
2019-06-26T09:11:57.886Z,33.90
2019-06-26T09:14:24.390Z,34.00
2019-06-26T09:16:50.783Z,33.80
2019-06-26T09:19:17.139Z,34.00
2019-06-26T09:21:43.507Z,34.10
2019-06-26T09:24:10.092Z,34.00
2019-06-26T09:26:36.421Z,33.80
2019-06-26T09:29:03.191Z,33.80
2019-06-26T09:31:29.539Z,33.60
2019-06-26T09:33:55.875Z,33.70
2019-06-26T09:36:22.199Z,33.80
2019-06-26T09:38:48.526Z,33.80
2019-06-26T09:41:14.865Z,33.90
2019-06-26T09:43:41.355Z,33.90
2019-06-26T09:46:07.712Z,34.00
2019-06-26T09:48:34.038Z,33.90
2019-06-26T09:51:00.370Z,34.00
2019-06-26T09:53:26.708Z,34.10
2019-06-26T09:55:53.049Z,34.10
2019-06-26T09:58:19.362Z,34.10
2019-06-26T10:00:45.710Z,34.30
2019-06-26T10:03:12.031Z,34.20
2019-06-26T10:05:39.278Z,34.40
2019-06-26T10:08:05.652Z,34.10
2019-06-26T10:10:31.954Z,34.10
2019-06-26T10:12:58.313Z,34.30
2019-06-26T10:15:24.607Z,34.40
2019-06-26T10:17:51.067Z,34.30
2019-06-26T10:20:18.065Z,34.30
2019-06-26T10:22:44.419Z,34.40
2019-06-26T10:25:11.865Z,34.50
2019-06-26T10:27:38.426Z,34.30
2019-06-26T10:30:06.358Z,34.50
2019-06-26T10:32:32.744Z,34.60
2019-06-26T10:34:59.128Z,34.50
2019-06-26T10:37:25.445Z,34.70
2019-06-26T10:39:51.812Z,34.60
2019-06-26T10:42:18.287Z,34.60
2019-06-26T10:44:44.600Z,34.70
2019-06-26T10:47:10.943Z,34.70
2019-06-26T10:49:37.279Z,35.00
2019-06-26T10:52:03.977Z,34.80
2019-06-26T10:54:30.448Z,34.80
2019-06-26T10:56:56.773Z,34.80
2019-06-26T10:59:23.119Z,34.70
2019-06-26T11:01:49.451Z,34.80
2019-06-26T11:04:15.776Z,35.20
2019-06-26T11:06:42.208Z,35.40
2019-06-26T11:09:08.629Z,35.10
2019-06-26T11:11:35.078Z,35.20
2019-06-26T11:14:01.455Z,35.20
2019-06-26T11:16:28.061Z,35.30
2019-06-26T11:18:55.403Z,35.10
2019-06-26T11:21:21.711Z,35.20
2019-06-26T11:23:48.061Z,35.40
2019-06-26T11:26:14.382Z,35.60
2019-06-26T11:28:41.228Z,35.40
2019-06-26T11:31:07.640Z,35.30
2019-06-26T11:33:34.124Z,35.40
2019-06-26T11:36:00.532Z,35.40
2019-06-26T11:38:26.870Z,35.30
2019-06-26T11:40:53.233Z,35.20
2019-06-26T11:43:19.589Z,35.60
2019-06-26T11:45:46.215Z,35.90
2019-06-26T11:48:12.544Z,36.00
2019-06-26T11:50:38.872Z,36.20
2019-06-26T11:53:05.207Z,36.40
2019-06-26T11:55:31.519Z,36.70
2019-06-26T11:57:58.191Z,37.20
2019-06-26T12:00:25.615Z,37.10
2019-06-26T12:02:52.013Z,37.60
2019-06-26T12:05:18.948Z,38.20
2019-06-26T12:07:45.265Z,39.70
2019-06-26T12:10:12.260Z,40.30
2019-06-26T12:12:39.877Z,40.80
2019-06-26T12:15:07.103Z,41.60
2019-06-26T12:17:33.447Z,42.80
2019-06-26T12:20:13.610Z,43.80
2019-06-26T12:22:28.147Z,44.80
2019-06-26T12:24:54.793Z,45.40
2019-06-26T12:27:21.121Z,44.30
2019-06-26T12:29:47.763Z,44.70
2019-06-26T12:32:14.083Z,46.60
2019-06-26T12:34:40.454Z,46.70
2019-06-26T12:37:06.774Z,46.70
2019-06-26T12:39:33.431Z,45.70
2019-06-26T12:41:59.870Z,45.50
2019-06-26T12:44:26.224Z,46.60
2019-06-26T12:46:52.591Z,47.80
2019-06-26T12:49:18.944Z,46.20
2019-06-26T12:51:45.271Z,46.70
2019-06-26T12:54:11.649Z,47.70
2019-06-26T12:56:39.066Z,45.70
2019-06-26T12:59:07.444Z,45.10
2019-06-26T13:01:34.037Z,44.90
2019-06-26T13:04:00.366Z,46.00
2019-06-26T13:06:26.775Z,45.50
2019-06-26T13:08:53.216Z,46.10
2019-06-26T13:11:19.581Z,46.80
2019-06-26T13:14:01.394Z,46.80
2019-06-26T13:16:15.005Z,47.10
2019-06-26T13:18:41.312Z,46.70
2019-06-26T13:21:07.694Z,46.60
2019-06-26T13:23:34.040Z,44.70
2019-06-26T13:26:00.382Z,44.60
2019-06-26T13:28:26.724Z,45.60
2019-06-26T13:30:53.588Z,44.50
2019-06-26T13:33:20.135Z,45.70
2019-06-26T13:35:49.795Z,47.30
2019-06-26T13:38:17.156Z,47.30
2019-06-26T13:40:44.471Z,48.80
2019-06-26T13:43:10.882Z,49.60
2019-06-26T13:45:38.327Z,48.10
2019-06-26T13:48:04.713Z,47.80
2019-06-26T13:50:32.078Z,48.30
2019-06-26T13:52:58.426Z,48.10
2019-06-26T13:55:24.764Z,46.70
2019-06-26T13:57:51.131Z,46.80
2019-06-26T14:00:18.729Z,48.40
2019-06-26T14:02:45.039Z,47.40
2019-06-26T14:05:11.685Z,48.60
2019-06-26T14:07:37.993Z,47.50
2019-06-26T14:10:05.685Z,47.60
2019-06-26T14:12:31.998Z,47.00
2019-06-26T14:14:58.461Z,46.70
2019-06-26T14:17:24.849Z,48.40
2019-06-26T14:19:51.223Z,48.10
2019-06-26T14:22:18.071Z,48.50
2019-06-26T14:24:44.700Z,49.80
2019-06-26T14:27:11.044Z,50.10
2019-06-26T14:29:37.473Z,50.00
2019-06-26T14:32:04.912Z,48.40
2019-06-26T14:34:31.227Z,49.00
2019-06-26T14:36:57.871Z,47.50
2019-06-26T14:39:24.192Z,45.90
2019-06-26T14:41:50.510Z,46.10
2019-06-26T14:44:16.844Z,45.20
2019-06-26T14:46:43.266Z,45.10
2019-06-26T14:49:10.964Z,45.60
2019-06-26T14:51:43.908Z,46.60
2019-06-26T14:54:05.551Z,48.40
2019-06-26T14:56:31.876Z,47.50
2019-06-26T14:58:58.270Z,49.20
2019-06-26T15:01:24.662Z,48.40
2019-06-26T15:03:51.097Z,48.20
2019-06-26T15:06:17.474Z,48.30
2019-06-26T15:08:44.084Z,49.30
2019-06-26T15:11:10.742Z,49.00
2019-06-26T15:13:37.031Z,49.40
2019-06-26T15:16:03.419Z,48.10
2019-06-26T15:18:29.710Z,48.00
2019-06-26T15:20:56.026Z,48.30
2019-06-26T15:23:22.374Z,49.30
2019-06-26T15:25:48.701Z,50.20
2019-06-26T15:28:15.023Z,50.20
2019-06-26T15:30:41.402Z,50.40
2019-06-26T15:33:07.711Z,50.30
2019-06-26T15:35:34.059Z,49.90
2019-06-26T15:38:01.585Z,50.30
2019-06-26T15:40:27.955Z,50.50
2019-06-26T15:42:54.340Z,49.90
2019-06-26T15:45:21.017Z,49.10
2019-06-26T15:47:47.491Z,48.90
2019-06-26T15:50:13.787Z,48.80
2019-06-26T15:52:40.241Z,47.00
2019-06-26T15:55:08.089Z,46.70
2019-06-26T15:57:34.420Z,46.90
2019-06-26T16:00:00.791Z,45.80
2019-06-26T16:02:27.236Z,47.50
2019-06-26T16:04:53.560Z,47.80
2019-06-26T16:07:19.872Z,48.80
2019-06-26T16:09:46.242Z,47.40
2019-06-26T16:12:12.571Z,47.20
2019-06-26T16:14:40.109Z,46.10
2019-06-26T16:17:11.063Z,45.00
2019-06-26T16:19:37.812Z,45.10
2019-06-26T16:22:04.146Z,46.30
2019-06-26T16:24:30.456Z,45.10
2019-06-26T16:26:56.806Z,45.50
2019-06-26T16:29:23.620Z,46.60
2019-06-26T16:31:50.080Z,46.80
2019-06-26T16:34:16.438Z,46.80
2019-06-26T16:36:42.831Z,47.00
2019-06-26T16:39:09.208Z,47.40
2019-06-26T16:41:35.552Z,47.80
2019-06-26T16:44:01.876Z,47.80
2019-06-26T16:46:28.298Z,46.60
2019-06-26T16:48:54.643Z,45.50
2019-06-26T16:51:21.002Z,46.10
2019-06-26T16:53:47.425Z,45.80
2019-06-26T16:56:14.114Z,46.60
2019-06-26T16:58:40.572Z,46.90
2019-06-26T17:01:06.940Z,46.20
2019-06-26T17:03:33.264Z,45.00
2019-06-26T17:06:00.043Z,45.30
2019-06-26T17:08:26.469Z,46.10
2019-06-26T17:10:52.770Z,46.40
2019-06-26T17:13:19.109Z,44.60
2019-06-26T17:15:45.470Z,44.10
2019-06-26T17:18:11.763Z,44.40
2019-06-26T17:20:38.113Z,43.40
2019-06-26T17:23:06.483Z,43.40
2019-06-26T17:25:32.836Z,43.20
2019-06-26T17:27:59.347Z,42.50
2019-06-26T17:30:25.826Z,41.90
2019-06-26T17:32:52.258Z,42.30
2019-06-26T17:35:19.598Z,42.50
2019-06-26T17:37:45.984Z,42.20
2019-06-26T17:40:13.834Z,42.60
2019-06-26T17:42:40.514Z,42.20
2019-06-26T17:45:07.241Z,42.00
2019-06-26T17:47:33.772Z,42.30
2019-06-26T17:50:00.138Z,42.50
2019-06-26T17:52:26.793Z,42.50
2019-06-26T17:54:53.120Z,42.20
2019-06-26T17:57:19.443Z,41.20
2019-06-26T17:59:45.799Z,41.20
2019-06-26T18:02:12.116Z,40.50
2019-06-26T18:04:38.466Z,40.50
2019-06-26T18:07:04.816Z,39.90
2019-06-26T18:09:31.219Z,39.50
2019-06-26T18:11:57.784Z,39.60
2019-06-26T18:14:26.082Z,39.10
2019-06-26T18:16:52.429Z,38.60
2019-06-26T18:19:19.122Z,38.10
2019-06-26T18:21:45.483Z,38.00
2019-06-26T18:24:11.793Z,38.30
2019-06-26T18:26:38.133Z,38.30
2019-06-26T18:29:04.463Z,37.90
2019-06-26T18:31:32.839Z,36.80
2019-06-26T18:33:59.391Z,36.30
2019-06-26T18:36:25.705Z,35.90
2019-06-26T18:38:52.152Z,35.40
2019-06-26T18:41:18.834Z,35.00
2019-06-26T18:43:45.261Z,34.90
2019-06-26T18:46:11.697Z,34.60
2019-06-26T18:48:38.077Z,34.40
2019-06-26T18:51:04.839Z,34.20
2019-06-26T18:53:31.630Z,34.10
2019-06-26T18:55:58.382Z,33.80
2019-06-26T18:58:24.785Z,33.60
2019-06-26T19:00:51.214Z,33.40
2019-06-26T19:03:17.566Z,33.20
2019-06-26T19:05:44.301Z,33.10
2019-06-26T19:08:10.963Z,33.00
2019-06-26T19:10:37.344Z,32.90
2019-06-26T19:13:03.697Z,32.90
2019-06-26T19:15:30.515Z,32.70
2019-06-26T19:18:02.494Z,32.50
2019-06-26T19:20:28.661Z,32.40
2019-06-26T19:22:55.288Z,32.20
2019-06-26T19:25:21.658Z,32.10
2019-06-26T19:27:48.322Z,32.00
2019-06-26T19:30:15.477Z,31.90
2019-06-26T19:32:41.895Z,31.80
2019-06-26T19:35:18.613Z,31.60
2019-06-26T19:37:36.897Z,31.50
2019-06-26T19:40:08.285Z,31.40
2019-06-26T19:42:33.948Z,31.20
2019-06-26T19:45:02.443Z,31.20
2019-06-26T19:47:29.288Z,31.10
2019-06-26T19:49:55.780Z,31.00
2019-06-26T19:52:22.457Z,31.00
2019-06-26T19:54:49.575Z,30.90
2019-06-26T19:57:16.352Z,30.80
2019-06-26T19:59:43.203Z,30.70
2019-06-26T20:02:09.770Z,30.60
2019-06-26T20:04:37.293Z,30.60
2019-06-26T20:07:04.409Z,30.50
2019-06-26T20:09:30.825Z,30.50
2019-06-26T20:11:57.225Z,30.40
2019-06-26T20:14:23.836Z,30.30
2019-06-26T20:16:50.559Z,30.30
2019-06-26T20:19:16.924Z,30.20
2019-06-26T20:21:43.397Z,30.10
2019-06-26T20:24:10.079Z,30.00
2019-06-26T20:26:36.826Z,29.90
2019-06-26T20:29:03.156Z,29.90
2019-06-26T20:31:29.544Z,29.90
2019-06-26T20:33:55.890Z,29.70
2019-06-26T20:36:22.246Z,29.70
2019-06-26T20:38:48.581Z,29.60
2019-06-26T20:41:14.982Z,29.50
2019-06-26T20:43:41.286Z,29.60
2019-06-26T20:46:07.668Z,29.50
2019-06-26T20:48:34.090Z,29.40
2019-06-26T20:51:00.910Z,29.40
2019-06-26T20:53:30.651Z,29.30
2019-06-26T20:55:57.011Z,29.30
2019-06-26T20:58:23.402Z,29.30
2019-06-26T21:00:49.789Z,29.20
2019-06-26T21:03:16.655Z,29.20
2019-06-26T21:05:43.191Z,29.20
2019-06-26T21:08:09.675Z,29.20
2019-06-26T21:10:36.327Z,29.20
2019-06-26T21:13:02.711Z,29.10
2019-06-26T21:15:29.233Z,29.10
2019-06-26T21:17:55.649Z,29.10
2019-06-26T21:20:22.373Z,29.00
2019-06-26T21:22:48.754Z,29.00
2019-06-26T21:25:18.854Z,29.00
2019-06-26T21:27:43.609Z,28.90
2019-06-26T21:30:11.283Z,28.80
2019-06-26T21:32:37.785Z,28.80
2019-06-26T21:35:04.210Z,28.80
2019-06-26T21:37:30.752Z,28.70
2019-06-26T21:39:57.124Z,28.60
2019-06-26T21:42:23.584Z,28.60
2019-06-26T21:44:49.899Z,28.50
2019-06-26T21:47:16.320Z,28.40
2019-06-26T21:49:42.642Z,28.30
2019-06-26T21:52:09.354Z,28.30
2019-06-26T21:54:36.095Z,28.20
2019-06-26T21:57:20.609Z,28.00
2019-06-26T22:00:07.587Z,28.00
2019-06-26T22:02:52.815Z,27.80
2019-06-26T22:05:21.417Z,27.80
2019-06-26T22:07:52.709Z,27.70
2019-06-26T22:10:32.893Z,27.60
2019-06-26T22:12:59.565Z,27.60
2019-06-26T22:15:26.236Z,27.50
2019-06-26T22:17:52.770Z,27.50
2019-06-26T22:20:19.812Z,27.50
2019-06-26T22:22:46.175Z,27.40
2019-06-26T22:25:12.956Z,27.40
2019-06-26T22:27:39.403Z,27.40
2019-06-26T22:30:07.534Z,27.30
2019-06-26T22:32:34.831Z,27.30
2019-06-26T22:35:04.886Z,27.20
2019-06-26T22:37:31.345Z,27.20
2019-06-26T22:39:57.706Z,27.10
2019-06-26T22:42:24.090Z,27.10
2019-06-26T22:44:50.447Z,27.00
2019-06-26T22:47:21.288Z,26.90
2019-06-26T22:49:47.885Z,26.90
2019-06-26T22:52:14.221Z,26.90
2019-06-26T22:54:40.567Z,26.80
2019-06-26T22:57:06.905Z,26.80
2019-06-26T22:59:33.305Z,26.80
2019-06-26T23:01:59.694Z,26.80
2019-06-26T23:04:26.150Z,26.70
2019-06-26T23:06:52.591Z,26.70
2019-06-26T23:09:21.216Z,26.60
2019-06-26T23:11:47.721Z,26.60
2019-06-26T23:14:14.053Z,26.60
2019-06-26T23:16:41.370Z,26.60
2019-06-26T23:19:07.698Z,26.50
2019-06-26T23:21:34.039Z,26.50
2019-06-26T23:24:00.623Z,26.50
2019-06-26T23:26:27.037Z,26.50
2019-06-26T23:28:53.422Z,26.60
2019-06-26T23:31:19.753Z,26.60
2019-06-26T23:33:46.114Z,26.70
2019-06-26T23:36:12.527Z,26.70
2019-06-26T23:38:38.890Z,26.70
2019-06-26T23:41:05.565Z,26.60
2019-06-26T23:43:31.986Z,26.60
2019-06-26T23:45:58.300Z,26.60
2019-06-26T23:48:25.688Z,26.60
2019-06-26T23:50:52.083Z,26.50
2019-06-26T23:53:18.447Z,26.50
2019-06-26T23:55:44.905Z,26.50
2019-06-26T23:58:11.246Z,26.40
